createdAt,value
2023-02-04T00:01:04.205Z,16.00
2023-02-04T00:03:31.641Z,13.07
2023-02-04T00:05:58.643Z,12.93
2023-02-04T00:08:25.658Z,11.20
2023-02-04T00:10:52.532Z,18.77
2023-02-04T00:13:19.411Z,16.60
2023-02-04T00:15:46.872Z,15.53
2023-02-04T00:18:13.964Z,12.37
2023-02-04T00:20:40.994Z,16.70
2023-02-04T00:23:07.910Z,11.83
2023-02-04T00:25:34.827Z,16.37
2023-02-04T00:28:01.827Z,16.27
2023-02-04T00:30:29.074Z,19.33
2023-02-04T00:32:56.854Z,12.60
2023-02-04T00:35:24.384Z,12.33
2023-02-04T00:37:55.649Z,19.67
2023-02-04T00:40:26.038Z,13.60
2023-02-04T00:42:52.859Z,13.63
2023-02-04T00:45:19.987Z,16.57
2023-02-04T00:47:46.883Z,13.47
2023-02-04T00:50:13.916Z,16.43
2023-02-04T00:52:40.931Z,14.60
2023-02-04T00:55:10.520Z,17.67
2023-02-04T00:57:37.428Z,20.40
2023-02-04T01:00:05.802Z,15.60
2023-02-04T01:02:32.662Z,22.97
2023-02-04T01:04:59.995Z,16.37
2023-02-04T01:07:26.900Z,20.33
2023-02-04T01:09:54.050Z,15.27
2023-02-04T01:12:23.308Z,23.37
2023-02-04T01:14:53.309Z,21.50
2023-02-04T01:17:21.477Z,14.90
2023-02-04T01:19:48.350Z,15.97
2023-02-04T01:22:15.402Z,15.83
2023-02-04T01:24:42.270Z,17.63
2023-02-04T01:27:38.311Z,17.93
2023-02-04T01:30:06.276Z,15.20
2023-02-04T01:32:34.224Z,19.67
2023-02-04T01:35:01.705Z,18.67
2023-02-04T01:37:28.858Z,14.73
2023-02-04T01:39:55.606Z,18.30
2023-02-04T01:42:22.559Z,17.57
2023-02-04T01:44:49.645Z,20.97
2023-02-04T01:47:16.528Z,16.77
2023-02-04T01:49:43.364Z,12.37
2023-02-04T01:52:10.935Z,15.73
2023-02-04T01:54:38.220Z,14.87
2023-02-04T01:57:06.957Z,12.10
2023-02-04T01:59:34.028Z,12.00
2023-02-04T02:02:00.897Z,9.70
2023-02-04T02:04:33.078Z,10.40
2023-02-04T02:07:04.143Z,6.73
2023-02-04T02:09:31.799Z,9.93
2023-02-04T02:11:58.859Z,6.77
2023-02-04T02:14:26.293Z,8.37
2023-02-04T02:16:53.107Z,9.50
2023-02-04T02:19:36.574Z,13.53
2023-02-04T02:22:07.607Z,7.47
2023-02-04T02:24:35.718Z,6.47
2023-02-04T02:27:07.444Z,8.43
2023-02-04T02:29:34.844Z,9.87
2023-02-04T02:32:01.754Z,10.20
2023-02-04T02:34:30.640Z,8.87
2023-02-04T02:36:58.695Z,9.37
2023-02-04T02:39:26.363Z,8.87
2023-02-04T02:41:53.676Z,10.13
2023-02-04T02:44:20.639Z,7.93
2023-02-04T02:46:47.582Z,5.70
2023-02-04T02:49:16.530Z,10.47
2023-02-04T02:51:44.111Z,10.27
2023-02-04T02:54:26.929Z,12.17
2023-02-04T02:56:56.888Z,7.73
2023-02-04T02:59:25.062Z,9.20
2023-02-04T03:01:55.628Z,9.40
2023-02-04T03:04:22.933Z,10.67
2023-02-04T03:06:51.057Z,9.43
2023-02-04T03:09:18.983Z,8.60
2023-02-04T03:11:47.573Z,5.93
2023-02-04T03:14:14.805Z,6.93
2023-02-04T03:16:41.990Z,6.33
2023-02-04T03:19:09.122Z,8.57
2023-02-04T03:21:36.466Z,7.40
2023-02-04T03:24:04.661Z,6.03
2023-02-04T03:26:31.871Z,8.47
2023-02-04T03:28:59.221Z,10.93
2023-02-04T03:31:26.269Z,10.97
2023-02-04T03:33:53.720Z,8.17
2023-02-04T03:36:20.455Z,8.13
2023-02-04T03:38:47.264Z,10.10
2023-02-04T03:41:14.084Z,8.87
2023-02-04T03:43:40.991Z,9.53
2023-02-04T03:46:07.796Z,8.83
2023-02-04T03:48:34.747Z,12.03
2023-02-04T03:51:01.818Z,11.87
2023-02-04T03:53:28.709Z,8.97
2023-02-04T03:55:55.516Z,11.00
2023-02-04T03:58:22.496Z,12.70
2023-02-04T04:00:49.410Z,9.90
2023-02-04T04:03:16.350Z,12.47
2023-02-04T04:05:43.945Z,9.93
2023-02-04T04:08:11.024Z,11.90
2023-02-04T04:10:37.977Z,14.93
2023-02-04T04:13:04.745Z,10.57
2023-02-04T04:15:33.984Z,9.97
2023-02-04T04:18:00.754Z,8.73
2023-02-04T04:20:29.188Z,7.37
2023-02-04T04:22:56.144Z,9.30
2023-02-04T04:25:22.928Z,7.30
2023-02-04T04:27:49.828Z,7.47
2023-02-04T04:30:17.011Z,8.73
2023-02-04T04:32:43.846Z,7.70
2023-02-04T04:35:10.707Z,7.50
2023-02-04T04:37:37.548Z,10.83
2023-02-04T04:40:04.666Z,11.87
2023-02-04T04:42:31.558Z,10.03
2023-02-04T04:44:58.448Z,8.90
2023-02-04T04:47:25.349Z,7.63
2023-02-04T04:49:52.108Z,10.27
2023-02-04T04:52:18.977Z,11.07
2023-02-04T04:54:46.060Z,11.93
2023-02-04T04:57:12.896Z,10.97
2023-02-04T04:59:39.664Z,15.13
2023-02-04T05:02:06.599Z,15.10
2023-02-04T05:04:33.413Z,13.67
2023-02-04T05:07:00.226Z,10.33
2023-02-04T05:09:27.128Z,14.00
2023-02-04T05:11:54.166Z,12.57
2023-02-04T05:14:20.937Z,11.67
2023-02-04T05:16:47.823Z,14.50
2023-02-04T05:19:14.802Z,14.50
2023-02-04T05:21:41.852Z,14.53
2023-02-04T05:24:09.444Z,11.20
2023-02-04T05:26:36.292Z,11.07
2023-02-04T05:29:03.314Z,13.10
2023-02-04T05:31:30.756Z,10.90
2023-02-04T05:33:58.242Z,13.53
2023-02-04T05:36:25.109Z,14.90
2023-02-04T05:38:51.966Z,15.10
2023-02-04T05:41:18.771Z,9.83
2023-02-04T05:43:45.699Z,10.50
2023-02-04T05:46:12.607Z,15.30
2023-02-04T05:48:40.453Z,12.73
2023-02-04T05:51:07.453Z,13.83
2023-02-04T05:53:34.224Z,13.57
2023-02-04T05:56:01.160Z,8.93
2023-02-04T05:58:33.527Z,13.17
2023-02-04T06:01:04.345Z,9.50
2023-02-04T06:03:31.668Z,10.27
2023-02-04T06:05:59.264Z,11.00
2023-02-04T06:08:26.213Z,13.53
2023-02-04T06:10:52.930Z,11.50
2023-02-04T06:13:20.593Z,11.20
2023-02-04T06:15:47.372Z,10.77
2023-02-04T06:18:14.305Z,9.67
2023-02-04T06:20:41.275Z,11.47
2023-02-04T06:23:08.277Z,11.27
2023-02-04T06:25:35.386Z,14.47
2023-02-04T06:28:02.266Z,9.97
2023-02-04T06:30:29.070Z,13.70
2023-02-04T06:32:55.913Z,15.00
2023-02-04T06:35:22.706Z,16.47
2023-02-04T06:37:50.016Z,12.90
2023-02-04T06:40:16.991Z,12.87
2023-02-04T06:42:43.918Z,14.73
2023-02-04T06:45:10.718Z,11.17
2023-02-04T06:47:37.648Z,14.10
2023-02-04T06:50:04.604Z,14.37
2023-02-04T06:52:31.296Z,12.70
2023-02-04T06:54:58.098Z,13.83
2023-02-04T06:57:24.841Z,17.60
2023-02-04T06:59:52.118Z,13.77
2023-02-04T07:02:19.144Z,14.07
2023-02-04T07:04:47.653Z,13.37
2023-02-04T07:07:14.564Z,16.80
2023-02-04T07:09:42.637Z,14.93
2023-02-04T07:12:09.880Z,12.87
2023-02-04T07:14:36.754Z,16.50
2023-02-04T07:17:03.748Z,19.00
2023-02-04T07:19:30.635Z,20.70
2023-02-04T07:21:57.855Z,19.27
2023-02-04T07:24:25.250Z,17.93
2023-02-04T07:26:52.495Z,20.80
2023-02-04T07:29:25.232Z,17.97
2023-02-04T07:31:53.278Z,23.90
2023-02-04T07:34:21.109Z,19.13
2023-02-04T07:36:48.192Z,17.83
2023-02-04T07:39:15.833Z,20.97
2023-02-04T07:41:42.749Z,21.03
2023-02-04T07:44:11.908Z,19.00
2023-02-04T07:46:52.868Z,21.57
2023-02-04T07:52:23.247Z,23.43
2023-02-04T07:54:50.404Z,23.43
2023-02-04T07:57:22.114Z,24.83
2023-02-04T07:59:49.220Z,23.23
2023-02-04T08:02:16.124Z,22.87
2023-02-04T08:04:42.975Z,22.67
2023-02-04T08:07:09.950Z,22.50
2023-02-04T08:09:37.200Z,21.73
2023-02-04T08:12:04.585Z,21.17
2023-02-04T08:14:31.495Z,23.77
2023-02-04T08:16:58.382Z,21.53
2023-02-04T08:19:25.157Z,24.30
2023-02-04T08:21:51.946Z,26.33
2023-02-04T08:24:18.912Z,21.10
2023-02-04T08:26:45.813Z,24.93
2023-02-04T08:29:12.855Z,24.33
2023-02-04T08:31:40.627Z,23.10
2023-02-04T08:34:08.230Z,24.57
2023-02-04T08:36:39.445Z,22.73
2023-02-04T08:39:06.736Z,25.30
2023-02-04T08:41:33.728Z,23.90
2023-02-04T08:44:00.567Z,27.67
2023-02-04T08:46:27.575Z,21.23
2023-02-04T08:48:54.910Z,23.77
2023-02-04T08:51:21.695Z,20.17
2023-02-04T08:53:48.542Z,26.00
2023-02-04T08:56:20.563Z,23.60
2023-02-04T08:58:53.080Z,21.73
2023-02-04T09:01:20.420Z,20.70
2023-02-04T09:03:47.218Z,21.67
2023-02-04T09:06:14.675Z,17.03
2023-02-04T09:08:41.523Z,25.30
2023-02-04T09:11:10.775Z,23.87
2023-02-04T09:13:38.114Z,25.77
2023-02-04T09:16:05.391Z,23.60
2023-02-04T09:18:32.821Z,25.33
2023-02-04T09:20:59.823Z,19.03
2023-02-04T09:23:26.813Z,17.40
2023-02-04T09:25:54.676Z,25.90
2023-02-04T09:28:21.598Z,22.13
2023-02-04T09:30:48.604Z,18.83
2023-02-04T09:33:17.163Z,19.70
2023-02-04T09:35:44.718Z,17.00
2023-02-04T09:38:11.576Z,21.30
2023-02-04T09:40:43.321Z,19.43
2023-02-04T09:43:15.293Z,18.13
2023-02-04T09:45:42.220Z,15.27
2023-02-04T09:48:12.345Z,19.97
2023-02-04T09:50:39.283Z,18.20
2023-02-04T09:53:06.986Z,16.97
2023-02-04T09:55:36.346Z,19.50
2023-02-04T09:58:04.825Z,24.67
2023-02-04T10:00:32.183Z,14.70
2023-02-04T10:03:01.156Z,14.57
2023-02-04T10:05:32.964Z,12.97
2023-02-04T10:08:00.511Z,11.90
2023-02-04T10:10:27.965Z,11.07
2023-02-04T10:12:57.550Z,16.07
2023-02-04T10:15:24.362Z,15.87
2023-02-04T10:18:20.534Z,13.83
2023-02-04T10:20:47.357Z,11.57
2023-02-04T10:23:14.209Z,15.50
2023-02-04T10:25:41.026Z,13.00
2023-02-04T10:28:07.849Z,15.50
2023-02-04T10:30:43.802Z,16.37
2023-02-04T10:33:24.861Z,17.60
2023-02-04T10:35:53.408Z,16.63
2023-02-04T10:38:20.360Z,18.27
2023-02-04T10:40:47.806Z,25.47
2023-02-04T10:43:21.754Z,18.10
2023-02-04T10:45:57.046Z,13.67
2023-02-04T10:48:23.990Z,14.53
2023-02-04T10:50:51.170Z,19.70
2023-02-04T10:53:41.784Z,16.20
2023-02-04T10:56:20.904Z,12.63
2023-02-04T10:58:48.766Z,14.53
2023-02-04T11:01:16.974Z,13.83
2023-02-04T11:03:47.080Z,11.23
2023-02-04T11:06:23.535Z,13.07
2023-02-04T11:08:53.445Z,16.40
2023-02-04T11:11:24.488Z,12.37
2023-02-04T11:13:51.496Z,12.57
2023-02-04T11:16:18.364Z,13.93
2023-02-04T11:18:50.919Z,13.43
2023-02-04T11:21:43.988Z,10.00
2023-02-04T11:24:19.163Z,7.97
2023-02-04T11:27:05.397Z,10.60
2023-02-04T11:29:38.955Z,6.60
2023-02-04T11:32:13.382Z,7.23
2023-02-04T11:34:55.941Z,9.53
2023-02-04T11:37:35.546Z,6.03
2023-02-04T11:40:14.583Z,4.27
2023-02-04T11:42:44.568Z,4.33
2023-02-04T11:45:21.772Z,3.87
2023-02-04T11:47:49.056Z,5.23
2023-02-04T11:50:29.298Z,4.73
2023-02-04T11:52:57.434Z,4.70
2023-02-04T11:55:25.880Z,4.70
2023-02-04T11:57:54.503Z,7.87
2023-02-04T12:00:34.446Z,6.27
2023-02-04T12:03:06.345Z,3.90
2023-02-04T12:05:44.918Z,5.47
2023-02-04T12:08:14.092Z,3.93
2023-02-04T12:10:48.931Z,5.20
2023-02-04T12:13:23.781Z,5.57
2023-02-04T12:16:05.800Z,4.53
2023-02-04T12:18:34.449Z,2.20
2023-02-04T12:21:02.676Z,3.20
2023-02-04T12:23:30.779Z,4.67
2023-02-04T12:25:58.002Z,3.83
2023-02-04T12:28:30.566Z,4.10
2023-02-04T12:30:57.624Z,3.07
2023-02-04T12:33:35.906Z,2.90
2023-02-04T12:36:03.462Z,5.73
2023-02-04T12:38:30.378Z,4.00
2023-02-04T12:40:57.384Z,2.63
2023-02-04T12:43:28.450Z,3.33
2023-02-04T12:49:32.720Z,4.37
2023-02-04T12:52:05.657Z,5.33
2023-02-04T12:54:37.055Z,4.27
2023-02-04T12:57:08.345Z,3.10
2023-02-04T12:59:37.029Z,2.83
2023-02-04T13:02:04.073Z,4.50
2023-02-04T13:04:31.338Z,3.17
2023-02-04T13:07:03.804Z,4.87
2023-02-04T13:09:39.412Z,4.07
2023-02-04T13:12:09.893Z,5.40
2023-02-04T13:14:37.325Z,3.93
2023-02-04T13:17:04.133Z,3.57
2023-02-04T13:19:32.560Z,3.73
2023-02-04T13:22:00.013Z,3.83
2023-02-04T13:24:27.230Z,4.73
2023-02-04T13:26:54.354Z,5.07
2023-02-04T13:29:24.508Z,4.60
2023-02-04T13:31:52.196Z,6.67
2023-02-04T13:34:19.771Z,5.30
2023-02-04T13:36:46.828Z,7.30
2023-02-04T13:39:13.759Z,6.87
2023-02-04T13:41:41.435Z,4.80
2023-02-04T13:44:08.417Z,6.33
2023-02-04T13:46:35.166Z,7.07
2023-02-04T13:49:02.050Z,9.33
2023-02-04T13:51:31.285Z,8.70
2023-02-04T13:53:59.626Z,7.57
2023-02-04T13:56:27.579Z,7.87
2023-02-04T13:58:59.484Z,7.70
2023-02-04T14:01:28.783Z,8.30
2023-02-04T14:03:58.174Z,11.47
2023-02-04T14:06:33.531Z,10.40
2023-02-04T14:09:04.894Z,11.83
2023-02-04T14:11:55.816Z,11.50
2023-02-04T14:14:23.354Z,9.23
2023-02-04T14:16:50.536Z,11.03
2023-02-04T14:19:17.530Z,8.50
2023-02-04T14:21:47.499Z,8.33
2023-02-04T14:24:14.436Z,7.80
2023-02-04T14:26:41.173Z,9.20
2023-02-04T14:29:08.094Z,6.97
2023-02-04T14:31:36.671Z,9.63
2023-02-04T14:34:03.644Z,11.23
2023-02-04T14:36:30.491Z,13.07
2023-02-04T14:38:57.349Z,11.10
2023-02-04T14:41:26.417Z,10.13
2023-02-04T14:43:53.819Z,10.80
2023-02-04T14:46:21.340Z,10.30
2023-02-04T14:48:48.417Z,9.23
2023-02-04T14:51:15.269Z,12.27
2023-02-04T14:53:46.071Z,9.50
2023-02-04T14:56:15.021Z,12.67
2023-02-04T14:58:42.220Z,12.17
2023-02-04T15:01:09.179Z,9.33
2023-02-04T15:03:36.124Z,9.90
2023-02-04T15:06:03.117Z,11.13
2023-02-04T15:08:29.920Z,12.93
2023-02-04T15:10:57.083Z,12.03
2023-02-04T15:13:23.956Z,15.20
2023-02-04T15:15:50.896Z,13.23
2023-02-04T15:18:17.802Z,12.87
2023-02-04T15:20:44.670Z,16.03
2023-02-04T15:23:13.246Z,15.33
2023-02-04T15:25:40.376Z,12.10
2023-02-04T15:28:07.510Z,14.80
2023-02-04T15:30:34.981Z,10.37
2023-02-04T15:33:02.052Z,13.43
2023-02-04T15:35:29.058Z,16.50
2023-02-04T15:37:55.855Z,13.57
2023-02-04T15:40:22.801Z,14.80
2023-02-04T15:42:50.955Z,9.87
2023-02-04T15:45:17.985Z,11.90
2023-02-04T15:47:44.834Z,12.90
2023-02-04T15:50:14.996Z,12.27
2023-02-04T15:52:41.982Z,11.23
2023-02-04T15:55:09.103Z,18.23
2023-02-04T15:57:37.454Z,12.17
2023-02-04T16:00:05.781Z,19.80
2023-02-04T16:02:32.670Z,21.60
2023-02-04T16:04:59.619Z,16.50
2023-02-04T16:07:26.714Z,17.20
2023-02-04T16:09:53.604Z,20.07
2023-02-04T16:12:20.544Z,20.10
2023-02-04T16:14:47.441Z,22.13
2023-02-04T16:17:14.411Z,22.27
2023-02-04T16:19:41.512Z,22.70
2023-02-04T16:22:08.464Z,19.37
2023-02-04T16:24:35.267Z,19.63
2023-02-04T16:27:02.156Z,21.87
2023-02-04T16:29:29.072Z,16.70
2023-02-04T16:31:58.000Z,22.47
2023-02-04T16:34:25.838Z,22.83
2023-02-04T16:36:52.858Z,25.33
2023-02-04T16:39:20.166Z,22.47
2023-02-04T16:41:47.144Z,17.93
2023-02-04T16:44:13.880Z,21.33
2023-02-04T16:46:41.023Z,27.40
2023-02-04T16:49:08.027Z,23.20
2023-02-04T16:51:35.105Z,25.60
2023-02-04T16:54:01.964Z,21.67
2023-02-04T16:56:39.876Z,20.80
2023-02-04T16:59:06.849Z,20.90
2023-02-04T17:01:33.776Z,26.13
2023-02-04T17:04:00.916Z,21.63
2023-02-04T17:06:29.031Z,24.87
2023-02-04T17:08:55.913Z,18.43
2023-02-04T17:11:29.825Z,26.17
2023-02-04T17:13:57.660Z,22.80
2023-02-04T17:16:25.105Z,24.47
2023-02-04T17:18:52.145Z,23.10
2023-02-04T17:21:18.857Z,27.40
2023-02-04T17:23:45.655Z,23.80
2023-02-04T17:26:13.219Z,24.10
2023-02-04T17:28:40.521Z,29.53
2023-02-04T17:31:07.612Z,22.13
2023-02-04T17:33:34.770Z,27.27
2023-02-04T17:36:02.417Z,24.40
2023-02-04T17:38:29.576Z,23.00
2023-02-04T17:40:56.333Z,26.00
2023-02-04T17:43:24.666Z,21.77
2023-02-04T17:45:51.474Z,21.27
2023-02-04T17:48:18.942Z,22.93
2023-02-04T17:50:45.713Z,23.07
2023-02-04T17:53:12.529Z,26.67
2023-02-04T17:55:42.039Z,23.13
2023-02-04T17:58:11.935Z,19.97
2023-02-04T18:00:39.869Z,23.27
2023-02-04T18:03:11.770Z,20.13
2023-02-04T18:05:42.653Z,20.70
2023-02-04T18:08:21.261Z,27.97
2023-02-04T18:10:53.194Z,24.33
2023-02-04T18:13:24.166Z,24.23
2023-02-04T18:15:58.181Z,22.20
2023-02-04T18:18:32.554Z,22.10
2023-02-04T18:21:02.838Z,24.37
2023-02-04T18:23:32.081Z,23.37
2023-02-04T18:26:12.415Z,20.27
2023-02-04T18:28:46.354Z,18.77
2023-02-04T18:31:52.694Z,17.97
2023-02-04T18:34:27.632Z,28.93
2023-02-04T18:36:55.537Z,24.93
2023-02-04T18:39:28.140Z,20.90
2023-02-04T18:41:55.405Z,22.87
2023-02-04T18:44:30.659Z,21.77
2023-02-04T18:46:57.904Z,22.83
2023-02-04T18:49:30.579Z,20.10
2023-02-04T18:51:59.009Z,22.93
2023-02-04T18:54:38.901Z,25.73
2023-02-04T18:57:18.401Z,22.47
2023-02-04T18:59:46.213Z,26.00
2023-02-04T19:02:41.564Z,21.13
2023-02-04T19:05:28.786Z,19.73
2023-02-04T19:08:14.743Z,22.80
2023-02-04T19:10:42.470Z,25.83
2023-02-04T19:13:22.654Z,20.63
2023-02-04T19:16:16.132Z,22.80
2023-02-04T19:18:43.206Z,19.70
2023-02-04T19:21:17.924Z,21.27
2023-02-04T19:23:45.048Z,24.07
2023-02-04T19:26:31.367Z,19.17
2023-02-04T19:28:58.331Z,27.90
2023-02-04T19:31:34.487Z,24.03
2023-02-04T19:34:17.703Z,22.30
2023-02-04T19:36:44.831Z,17.93
2023-02-04T19:39:21.804Z,25.20
2023-02-04T19:41:50.233Z,16.63
2023-02-04T19:44:46.325Z,20.63
2023-02-04T19:47:35.459Z,27.30
2023-02-04T19:50:14.265Z,23.70
2023-02-04T19:52:49.484Z,24.53
2023-02-04T19:55:34.942Z,21.10
2023-02-04T19:58:21.060Z,20.23
2023-02-04T20:01:02.366Z,21.83
2023-02-04T20:03:37.065Z,19.43
2023-02-04T20:06:30.852Z,22.60
2023-02-04T20:09:26.660Z,20.17
2023-02-04T20:11:58.251Z,21.23
2023-02-04T20:14:36.742Z,24.70
2023-02-04T20:17:17.047Z,20.43
2023-02-04T20:19:44.343Z,18.83
2023-02-04T20:22:17.512Z,18.83
2023-02-04T20:24:59.331Z,19.90
2023-02-04T20:27:37.797Z,18.73
2023-02-04T20:30:08.077Z,14.57
2023-02-04T20:32:49.957Z,22.40
2023-02-04T20:35:16.718Z,20.63
2023-02-04T20:37:44.182Z,21.37
2023-02-04T20:40:20.110Z,19.80
2023-02-04T20:42:54.937Z,17.17
2023-02-04T20:45:26.596Z,19.17
2023-02-04T20:47:57.461Z,15.20
2023-02-04T20:50:52.213Z,21.30
2023-02-04T20:53:36.693Z,16.37
2023-02-04T20:56:16.412Z,26.07
2023-02-04T20:58:44.532Z,20.30
2023-02-04T21:01:23.213Z,16.50
2023-02-04T21:03:51.320Z,17.30
2023-02-04T21:06:29.824Z,21.40
2023-02-04T21:09:03.145Z,17.23
2023-02-04T21:11:29.947Z,19.50
2023-02-04T21:13:56.790Z,20.70
2023-02-04T21:16:23.599Z,19.53
2023-02-04T21:18:50.862Z,17.30
2023-02-04T21:21:18.298Z,20.10
2023-02-04T21:23:45.088Z,18.00
2023-02-04T21:26:12.925Z,16.70
2023-02-04T21:28:39.790Z,16.13
2023-02-04T21:31:06.880Z,13.87
2023-02-04T21:33:33.713Z,16.90
2023-02-04T21:36:00.937Z,19.13
2023-02-04T21:38:27.796Z,17.83
2023-02-04T21:40:54.620Z,18.60
2023-02-04T21:43:21.770Z,18.47
2023-02-04T21:45:48.698Z,19.30
2023-02-04T21:48:15.585Z,21.33
2023-02-04T21:50:42.457Z,24.13
2023-02-04T21:53:09.405Z,24.23
2023-02-04T21:55:36.802Z,16.00
2023-02-04T21:58:04.557Z,19.57
2023-02-04T22:00:31.505Z,16.87
2023-02-04T22:02:58.477Z,18.80
2023-02-04T22:05:25.583Z,19.83
2023-02-04T22:07:53.194Z,25.10
2023-02-04T22:10:22.809Z,18.43
2023-02-04T22:12:49.865Z,19.53
2023-02-04T22:15:17.161Z,20.07
2023-02-04T22:17:44.854Z,22.83
2023-02-04T22:20:12.641Z,22.27
2023-02-04T22:22:39.570Z,21.40
2023-02-04T22:25:06.820Z,21.43
2023-02-04T22:27:33.515Z,21.27
2023-02-04T22:30:03.320Z,16.57
2023-02-04T22:32:30.504Z,28.00
2023-02-04T22:34:57.394Z,21.90
2023-02-04T22:37:24.785Z,20.40
2023-02-04T22:39:51.762Z,23.03
2023-02-04T22:42:18.427Z,19.53
2023-02-04T22:44:45.331Z,21.00
2023-02-04T22:47:13.124Z,22.27
2023-02-04T22:49:40.026Z,22.13
2023-02-04T22:52:06.902Z,23.20
2023-02-04T22:54:33.948Z,21.03
2023-02-04T22:57:00.998Z,22.73
2023-02-04T22:59:29.181Z,28.30
2023-02-04T23:01:56.570Z,22.83
2023-02-04T23:04:23.610Z,21.77
2023-02-04T23:06:51.326Z,23.83
2023-02-04T23:09:18.258Z,25.00
2023-02-04T23:11:50.287Z,19.67
2023-02-04T23:14:18.008Z,21.43
2023-02-04T23:16:47.432Z,27.20
2023-02-04T23:19:14.841Z,26.27
2023-02-04T23:21:41.790Z,22.00
2023-02-04T23:24:08.834Z,24.77
2023-02-04T23:26:36.000Z,26.03
2023-02-04T23:29:03.160Z,24.23
2023-02-04T23:31:29.926Z,25.77
2023-02-04T23:33:56.718Z,26.37
2023-02-04T23:36:23.557Z,27.03
2023-02-04T23:38:50.397Z,25.17
2023-02-04T23:41:17.388Z,25.67
2023-02-04T23:43:44.154Z,28.20
2023-02-04T23:46:11.489Z,25.67
2023-02-04T23:48:38.350Z,26.97
2023-02-04T23:51:06.214Z,24.40
2023-02-04T23:53:32.962Z,27.00
2023-02-04T23:55:59.869Z,27.03
2023-02-04T23:58:26.750Z,27.77
